createdAt,value
2023-03-22T00:02:19.905Z,77.00
2023-03-22T00:04:48.322Z,77.00
2023-03-22T00:07:16.465Z,77.00
2023-03-22T00:09:44.793Z,77.00
2023-03-22T00:12:13.001Z,77.00
2023-03-22T00:14:41.360Z,77.00
2023-03-22T00:17:09.589Z,77.20
2023-03-22T00:19:42.212Z,77.20
2023-03-22T00:22:11.567Z,77.40
2023-03-22T00:24:39.782Z,77.40
2023-03-22T00:27:07.944Z,77.50
2023-03-22T00:29:36.127Z,77.50
2023-03-22T00:32:04.764Z,77.50
2023-03-22T00:34:33.244Z,77.50
2023-03-22T00:37:02.803Z,77.60
2023-03-22T00:39:30.973Z,77.70
2023-03-22T00:41:59.135Z,77.80
2023-03-22T00:44:27.320Z,77.90
2023-03-22T00:46:55.612Z,77.80
2023-03-22T00:49:25.540Z,77.80
2023-03-22T00:51:53.973Z,77.90
2023-03-22T00:54:23.763Z,77.90
2023-03-22T00:56:51.933Z,78.00
2023-03-22T00:59:20.267Z,78.00
2023-03-22T01:01:48.445Z,78.00
2023-03-22T01:04:18.104Z,77.90
2023-03-22T01:06:47.243Z,77.90
2023-03-22T01:09:15.513Z,77.80
2023-03-22T01:11:45.574Z,77.80
2023-03-22T01:14:13.931Z,77.80
2023-03-22T01:16:42.388Z,77.80
2023-03-22T01:19:10.649Z,77.80
2023-03-22T01:21:38.856Z,77.80
2023-03-22T01:24:07.575Z,77.80
2023-03-22T01:26:35.832Z,77.80
2023-03-22T01:29:05.980Z,77.90
2023-03-22T01:31:34.146Z,77.90
2023-03-22T01:34:02.367Z,77.70
2023-03-22T01:36:30.788Z,77.60
2023-03-22T01:38:59.342Z,77.50
2023-03-22T01:41:27.614Z,77.30
2023-03-22T01:44:12.268Z,77.40
2023-03-22T01:46:40.816Z,77.50
2023-03-22T01:49:12.671Z,77.30
2023-03-22T01:51:43.725Z,77.30
2023-03-22T01:54:17.790Z,77.40
2023-03-22T01:56:46.735Z,77.30
2023-03-22T01:59:16.773Z,77.20
2023-03-22T02:01:47.102Z,77.10
2023-03-22T02:04:20.041Z,77.20
2023-03-22T02:06:49.391Z,77.20
2023-03-22T02:09:21.994Z,77.20
2023-03-22T02:11:58.204Z,77.20
2023-03-22T02:14:51.598Z,77.10
2023-03-22T02:17:31.763Z,77.20
2023-03-22T02:20:28.186Z,77.00
2023-03-22T02:23:29.858Z,77.00
2023-03-22T02:26:27.663Z,76.90
2023-03-22T02:29:02.919Z,76.90
2023-03-22T02:31:51.491Z,76.70
2023-03-22T02:34:58.853Z,76.70
2023-03-22T02:38:05.441Z,76.80
2023-03-22T02:40:38.285Z,76.70
2023-03-22T02:43:15.891Z,76.60
2023-03-22T02:45:51.246Z,76.60
2023-03-22T02:48:27.853Z,76.60
2023-03-22T02:50:59.834Z,76.60
2023-03-22T02:53:31.207Z,76.40
2023-03-22T02:56:03.802Z,76.40
2023-03-22T02:58:37.030Z,76.10
2023-03-22T03:01:08.044Z,76.10
2023-03-22T03:03:39.678Z,76.00
2023-03-22T03:06:12.904Z,76.10
2023-03-22T03:08:41.422Z,76.10
2023-03-22T03:11:11.195Z,76.10
2023-03-22T03:13:39.653Z,76.00
2023-03-22T03:16:08.820Z,76.10
2023-03-22T03:18:48.512Z,76.00
2023-03-22T03:21:30.306Z,76.10
2023-03-22T03:24:06.853Z,76.00
2023-03-22T03:26:44.416Z,75.80
2023-03-22T03:29:20.003Z,75.60
2023-03-22T03:31:54.418Z,75.60
2023-03-22T03:34:27.629Z,75.30
2023-03-22T03:37:00.295Z,76.00
2023-03-22T03:39:33.435Z,75.30
2023-03-22T03:42:03.725Z,75.30
2023-03-22T03:44:33.712Z,75.40
2023-03-22T03:47:03.296Z,75.30
2023-03-22T03:49:31.639Z,75.50
2023-03-22T03:52:01.261Z,75.60
2023-03-22T03:54:29.451Z,75.80
2023-03-22T03:56:57.992Z,75.80
2023-03-22T03:59:27.547Z,75.80
2023-03-22T04:01:55.767Z,75.80
2023-03-22T04:04:27.434Z,75.80
2023-03-22T04:06:57.811Z,75.90
2023-03-22T04:09:27.425Z,75.90
2023-03-22T04:11:56.021Z,75.90
2023-03-22T04:14:25.631Z,76.10
2023-03-22T04:16:56.121Z,76.20
2023-03-22T04:19:25.081Z,76.30
2023-03-22T04:21:53.734Z,76.50
2023-03-22T04:24:22.905Z,76.50
2023-03-22T04:26:52.444Z,76.60
2023-03-22T04:29:22.124Z,76.70
2023-03-22T04:31:50.363Z,76.60
2023-03-22T04:34:19.933Z,76.60
2023-03-22T04:36:48.105Z,76.70
2023-03-22T04:39:16.292Z,76.80
2023-03-22T04:41:44.509Z,76.80
2023-03-22T04:44:12.814Z,76.80
2023-03-22T04:46:42.691Z,76.90
2023-03-22T04:49:11.005Z,76.80
2023-03-22T04:51:40.537Z,76.80
2023-03-22T04:54:08.713Z,76.90
2023-03-22T04:56:36.930Z,76.80
2023-03-22T04:59:05.155Z,76.80
2023-03-22T05:01:35.265Z,76.80
2023-03-22T05:04:03.588Z,76.80
2023-03-22T05:06:32.782Z,76.80
2023-03-22T05:09:02.778Z,76.70
2023-03-22T05:11:30.992Z,76.70
2023-03-22T05:13:59.572Z,76.60
2023-03-22T05:16:27.879Z,76.50
2023-03-22T05:18:56.605Z,76.50
2023-03-22T05:21:28.251Z,76.40
2023-03-22T05:23:57.991Z,76.30
2023-03-22T05:26:28.183Z,76.30
2023-03-22T05:28:56.874Z,76.20
2023-03-22T05:31:25.121Z,76.10
2023-03-22T05:33:53.815Z,76.10
2023-03-22T05:36:24.018Z,76.00
2023-03-22T05:38:52.456Z,76.00
2023-03-22T05:41:20.700Z,76.00
2023-03-22T05:43:51.702Z,76.00
2023-03-22T05:46:19.888Z,76.10
2023-03-22T05:48:48.200Z,76.10
2023-03-22T05:51:19.322Z,76.10
2023-03-22T05:53:47.524Z,76.20
2023-03-22T05:56:16.235Z,76.30
2023-03-22T05:58:45.006Z,76.20
2023-03-22T06:01:16.081Z,76.10
2023-03-22T06:03:44.633Z,75.90
2023-03-22T06:06:13.812Z,75.90
2023-03-22T06:08:42.010Z,75.80
2023-03-22T06:11:10.306Z,75.80
2023-03-22T06:13:38.886Z,75.70
2023-03-22T06:16:07.995Z,75.80
2023-03-22T06:18:37.697Z,75.90
2023-03-22T06:21:06.448Z,75.80
2023-03-22T06:23:34.600Z,75.80
2023-03-22T06:26:02.755Z,75.80
2023-03-22T06:28:30.923Z,75.90
2023-03-22T06:30:59.203Z,75.90
2023-03-22T06:33:27.453Z,76.20
2023-03-22T06:35:58.929Z,76.50
2023-03-22T06:38:27.112Z,76.90
2023-03-22T06:40:55.277Z,77.00
2023-03-22T06:43:23.473Z,77.20
2023-03-22T06:45:51.674Z,77.30
2023-03-22T06:48:19.928Z,77.40
2023-03-22T06:50:48.111Z,77.50
2023-03-22T06:53:17.667Z,77.60
2023-03-22T06:55:45.856Z,77.70
2023-03-22T06:58:14.018Z,77.80
2023-03-22T07:00:42.418Z,77.80
2023-03-22T07:03:10.742Z,77.90
2023-03-22T07:05:38.899Z,77.80
2023-03-22T07:08:07.276Z,77.80
2023-03-22T07:10:37.035Z,77.90
2023-03-22T07:13:05.335Z,78.10
2023-03-22T07:15:34.482Z,78.20
2023-03-22T07:18:03.169Z,78.30
2023-03-22T07:20:33.023Z,78.40
2023-03-22T07:23:01.140Z,78.40
2023-03-22T07:25:29.367Z,78.40
2023-03-22T07:28:00.376Z,78.40
2023-03-22T07:30:28.613Z,78.40
2023-03-22T07:32:56.772Z,78.30
2023-03-22T07:35:26.880Z,78.40
2023-03-22T07:37:55.306Z,78.50
2023-03-22T07:40:23.797Z,78.50
2023-03-22T07:42:53.783Z,78.30
2023-03-22T07:45:25.090Z,78.40
2023-03-22T07:47:53.579Z,78.30
2023-03-22T07:50:21.950Z,78.30
2023-03-22T07:52:50.220Z,78.10
2023-03-22T07:55:18.614Z,78.00
2023-03-22T07:57:46.854Z,77.90
2023-03-22T08:00:17.307Z,77.80
2023-03-22T08:02:47.011Z,77.80
2023-03-22T08:05:15.611Z,77.80
2023-03-22T08:07:43.804Z,77.90
2023-03-22T08:10:12.901Z,78.10
2023-03-22T08:12:41.093Z,77.90
2023-03-22T08:15:10.715Z,77.70
2023-03-22T08:17:38.884Z,77.60
2023-03-22T08:20:10.275Z,77.60
2023-03-22T08:22:38.444Z,77.30
2023-03-22T08:25:07.351Z,76.80
2023-03-22T08:27:35.514Z,76.70
2023-03-22T08:30:05.713Z,76.60
2023-03-22T08:32:35.085Z,76.60
2023-03-22T08:35:03.286Z,76.60
2023-03-22T08:37:32.827Z,76.30
2023-03-22T08:40:01.049Z,76.10
2023-03-22T08:42:29.239Z,76.40
2023-03-22T08:44:57.450Z,76.00
2023-03-22T08:47:25.638Z,75.60
2023-03-22T08:49:53.814Z,75.00
2023-03-22T08:52:21.987Z,74.70
2023-03-22T08:54:53.383Z,73.90
2023-03-22T08:57:23.916Z,73.10
2023-03-22T08:59:52.297Z,72.70
2023-03-22T09:02:20.637Z,72.40
2023-03-22T09:04:49.018Z,72.10
2023-03-22T09:07:18.952Z,72.10
2023-03-22T09:09:47.284Z,72.00
2023-03-22T09:12:17.012Z,71.90
2023-03-22T09:14:46.838Z,72.10
2023-03-22T09:17:15.051Z,72.10
2023-03-22T09:19:43.724Z,71.80
2023-03-22T09:22:11.935Z,71.20
2023-03-22T09:24:40.304Z,71.30
2023-03-22T09:27:08.528Z,70.70
2023-03-22T09:29:38.094Z,70.10
2023-03-22T09:32:06.723Z,69.70
2023-03-22T09:34:35.116Z,69.30
2023-03-22T09:37:04.219Z,69.10
2023-03-22T09:39:32.373Z,68.90
2023-03-22T09:42:03.874Z,68.80
2023-03-22T09:44:35.824Z,68.70
2023-03-22T09:47:07.165Z,68.70
2023-03-22T09:49:52.574Z,68.10
2023-03-22T09:52:21.902Z,67.30
2023-03-22T09:54:52.698Z,66.50
2023-03-22T09:57:28.074Z,65.50
2023-03-22T10:00:05.918Z,64.90
2023-03-22T10:02:51.105Z,64.90
2023-03-22T10:05:26.164Z,64.20
2023-03-22T10:08:12.966Z,64.60
2023-03-22T10:10:43.114Z,64.10
2023-03-22T10:13:19.817Z,64.10
2023-03-22T10:15:50.583Z,63.70
2023-03-22T10:18:23.074Z,63.80
2023-03-22T10:20:57.221Z,63.20
2023-03-22T10:23:31.547Z,62.60
2023-03-22T10:26:01.320Z,62.40
2023-03-22T10:28:36.349Z,62.50
2023-03-22T10:31:05.949Z,61.80
2023-03-22T10:33:43.011Z,61.60
2023-03-22T10:36:16.506Z,60.90
2023-03-22T10:38:48.851Z,60.60
2023-03-22T10:41:19.576Z,60.00
2023-03-22T10:43:51.640Z,60.20
2023-03-22T10:46:21.986Z,60.30
2023-03-22T10:48:54.304Z,60.70
2023-03-22T10:51:27.315Z,60.00
2023-03-22T10:53:58.207Z,59.80
2023-03-22T10:56:26.977Z,60.00
2023-03-22T10:58:56.759Z,59.70
2023-03-22T11:01:31.933Z,59.70
2023-03-22T11:04:08.507Z,59.40
2023-03-22T11:06:44.252Z,59.60
2023-03-22T11:09:14.353Z,59.50
2023-03-22T11:11:50.777Z,59.70
2023-03-22T11:14:28.166Z,59.60
2023-03-22T11:17:00.339Z,59.60
2023-03-22T11:19:33.691Z,59.70
2023-03-22T11:22:03.805Z,59.00
2023-03-22T11:24:34.351Z,59.30
2023-03-22T11:27:18.259Z,59.40
2023-03-22T11:29:49.900Z,59.60
2023-03-22T11:32:26.901Z,59.70
2023-03-22T11:35:03.682Z,59.70
2023-03-22T11:37:32.126Z,60.40
2023-03-22T11:40:05.159Z,59.90
2023-03-22T11:42:35.910Z,59.30
2023-03-22T11:45:04.320Z,59.30
2023-03-22T11:47:38.038Z,59.50
2023-03-22T11:50:10.906Z,59.40
2023-03-22T11:52:39.774Z,59.30
2023-03-22T11:55:08.628Z,59.30
2023-03-22T11:57:38.766Z,59.30
2023-03-22T12:00:15.165Z,59.00
2023-03-22T12:02:49.812Z,58.90
2023-03-22T12:05:23.729Z,58.70
2023-03-22T12:07:56.289Z,58.50
2023-03-22T12:10:29.850Z,58.50
2023-03-22T12:13:02.855Z,58.50
2023-03-22T12:15:34.584Z,58.20
2023-03-22T12:18:08.032Z,57.90
2023-03-22T12:20:43.820Z,59.10
2023-03-22T12:23:16.665Z,57.90
2023-03-22T12:25:50.682Z,58.10
2023-03-22T12:28:21.469Z,57.80
2023-03-22T12:30:52.373Z,57.90
2023-03-22T12:33:25.454Z,57.60
2023-03-22T12:35:58.741Z,57.90
2023-03-22T12:38:34.063Z,57.20
2023-03-22T12:41:06.728Z,56.90
2023-03-22T12:43:46.843Z,57.00
2023-03-22T12:46:21.632Z,56.70
2023-03-22T12:48:54.062Z,56.70
2023-03-22T12:51:23.622Z,56.70
2023-03-22T12:53:54.415Z,56.80
2023-03-22T12:56:26.316Z,56.80
2023-03-22T12:58:58.668Z,56.40
2023-03-22T13:01:34.679Z,56.10
2023-03-22T13:04:33.844Z,55.10
2023-03-22T13:07:15.614Z,54.90
2023-03-22T13:09:45.752Z,54.50
2023-03-22T13:12:35.465Z,54.80
2023-03-22T13:15:41.403Z,54.30
2023-03-22T13:18:32.644Z,54.00
2023-03-22T13:21:13.063Z,54.20
2023-03-22T13:24:01.890Z,53.60
2023-03-22T13:26:39.297Z,53.60
2023-03-22T13:29:17.348Z,53.60
2023-03-22T13:31:48.263Z,53.50
2023-03-22T13:34:19.862Z,53.60
2023-03-22T13:36:54.258Z,53.60
2023-03-22T13:39:25.525Z,53.40
2023-03-22T13:42:07.241Z,53.40
2023-03-22T13:44:39.952Z,52.40
2023-03-22T13:47:29.745Z,52.30
2023-03-22T13:50:04.865Z,52.50
2023-03-22T13:52:41.367Z,53.40
2023-03-22T13:55:41.287Z,53.50
2023-03-22T13:58:12.893Z,53.40
2023-03-22T14:00:50.940Z,53.70
2023-03-22T14:03:27.800Z,53.60
2023-03-22T14:06:10.711Z,52.90
2023-03-22T14:08:41.677Z,52.40
2023-03-22T14:11:21.600Z,52.70
2023-03-22T14:13:52.313Z,52.80
2023-03-22T14:16:30.224Z,53.30
2023-03-22T14:18:58.671Z,53.10
2023-03-22T14:21:36.250Z,53.50
